Time;durP1;ratioP1;P1;durP2;ratioP2;P2;SDS_P1;SDS_P2;PMS_P1;PMS_P2;Temp;Humidity;BMP_temperature;BMP_pressure;BME280_temperature;BME280_humidity;BME280_pressure;Samples;Min_cycle;Max_cycle;Signal;HPM_P1;HPM_P2
2022/01/24 00:02:07;;;;;;;40.05;26.02;;;1.70;99.90;;;;;;4982219;28;20034;-82
2022/01/24 00:04:33;;;;;;;43.50;26.67;;;1.60;99.90;;;;;;4999787;28;20027;-82
2022/01/24 00:06:59;;;;;;;42.33;27.38;;;1.70;99.90;;;;;;4982690;28;20030;-82
2022/01/24 00:09:25;;;;;;;44.60;27.67;;;1.70;99.90;;;;;;4981646;28;20034;-81
2022/01/24 00:12:03;;;;;;;42.45;25.25;;;1.70;99.90;;;;;;4999386;28;20073;-82
2022/01/24 00:14:55;;;;;;;36.72;24.75;;;1.70;99.90;;;;;;4999299;28;20026;-82
2022/01/24 00:17:36;;;;;;;40.88;24.92;;;1.90;99.90;;;;;;4999017;28;20575;-81
2022/01/24 00:28:20;;;;;;;38.58;25.13;;;1.80;99.90;;;;;;4998882;28;20092;-81
2022/01/24 00:30:46;;;;;;;40.03;25.95;;;1.80;99.90;;;;;;4981230;28;20034;-82
2022/01/24 00:33:12;;;;;;;40.78;24.88;;;1.80;99.90;;;;;;4981674;28;20026;-82
2022/01/24 00:35:38;;;;;;;39.33;25.40;;;1.80;99.90;;;;;;4984393;28;20045;-81
2022/01/24 00:38:04;;;;;;;36.25;24.20;;;1.80;99.90;;;;;;5014386;28;20030;-80
2022/01/24 00:40:38;;;;;;;39.13;24.23;;;1.80;99.90;;;;;;4999059;28;20022;-80
2022/01/24 00:43:09;;;;;;;37.15;25.50;;;1.90;99.90;;;;;;4981595;28;20049;-82
2022/01/24 00:45:55;;;;;;;34.30;22.80;;;1.90;99.90;;;;;;5000376;28;20037;-81
2022/01/24 00:56:11;;;;;;;31.33;20.20;;;2.10;99.90;;;;;;4998797;28;20034;-81
2022/01/24 00:58:37;;;;;;;30.65;20.75;;;2.10;99.90;;;;;;4998840;28;20038;-82
2022/01/24 01:01:06;;;;;;;33.08;20.90;;;2.10;99.90;;;;;;4998593;28;20026;-81
2022/01/24 01:03:33;;;;;;;31.77;22.20;;;2.00;99.90;;;;;;4981030;28;20597;-82
2022/01/24 01:06:09;;;;;;;28.30;21.05;;;1.90;99.90;;;;;;5008795;28;20049;-82
2022/01/24 01:19:38;;;;;;;30.92;20.38;;;1.50;99.90;;;;;;4997842;28;20513;-82
2022/01/24 01:22:04;;;;;;;29.75;21.70;;;1.40;99.90;;;;;;4980039;28;20022;-81
2022/01/24 01:24:38;;;;;;;28.77;22.08;;;1.30;99.90;;;;;;4998039;28;20019;-81
2022/01/24 01:27:16;;;;;;;28.48;19.70;;;1.20;99.90;;;;;;4980150;28;20058;-82
2022/01/24 01:29:57;;;;;;;33.35;20.95;;;1.20;99.90;;;;;;4980710;28;20447;-81
2022/01/24 01:35:33;;;;;;;32.20;21.80;;;1.00;99.90;;;;;;5000563;28;20104;-81
2022/01/24 01:38:34;;;;;;;34.08;21.50;;;1.00;99.90;;;;;;4998077;28;20027;-81
2022/01/24 01:57:18;;;;;;;31.95;22.20;;;0.90;99.90;;;;;;4997524;28;20062;-81
2022/01/24 01:59:47;;;;;;;33.65;22.23;;;0.90;99.90;;;;;;4980279;28;20556;-81
2022/01/24 02:02:14;;;;;;;28.67;21.02;;;0.90;99.90;;;;;;4980426;28;20031;-81
2022/01/24 02:04:41;;;;;;;35.30;22.27;;;0.90;99.90;;;;;;4997747;28;20387;-81
2022/01/24 02:07:16;;;;;;;33.40;21.65;;;0.90;99.90;;;;;;4997599;28;20053;-81
2022/01/24 02:09:45;;;;;;;29.05;20.02;;;1.00;99.90;;;;;;4997453;28;20027;-81
2022/01/24 02:12:12;;;;;;;31.48;22.35;;;1.00;99.90;;;;;;4979979;28;20030;-81
2022/01/24 02:14:45;;;;;;;35.42;23.33;;;1.00;99.90;;;;;;4980304;28;20391;-80
2022/01/24 02:17:17;;;;;;;37.05;22.52;;;1.00;99.90;;;;;;4997493;28;20027;-80
2022/01/24 02:20:04;;;;;;;36.00;23.42;;;1.00;99.90;;;;;;4998629;28;20086;-81
2022/01/24 02:22:47;;;;;;;34.75;22.63;;;1.20;99.90;;;;;;4981775;28;20022;-82
2022/01/24 02:25:27;;;;;;;36.45;22.83;;;1.20;99.90;;;;;;4997407;28;20378;-81
2022/01/24 02:27:57;;;;;;;38.83;22.67;;;1.20;99.90;;;;;;5000170;28;20054;-81
2022/01/24 02:32:50;;;;;;;46.42;25.70;;;1.50;99.90;;;;;;5000465;28;20121;-80
2022/01/24 02:35:16;;;;;;;36.25;22.65;;;1.70;99.90;;;;;;4986064;28;20057;-80
2022/01/24 02:37:42;;;;;;;43.28;23.35;;;1.70;99.90;;;;;;5001118;28;20026;-79
2022/01/24 02:40:14;;;;;;;35.97;22.25;;;1.70;99.90;;;;;;5000805;28;20754;-80
2022/01/24 02:48:24;;;;;;;35.58;23.02;;;1.90;99.90;;;;;;5000922;28;20449;-81
2022/01/24 02:53:39;;;;;;;29.55;21.67;;;2.10;99.90;;;;;;5000624;28;20458;-82
2022/01/24 02:56:06;;;;;;;32.83;19.88;;;2.10;99.90;;;;;;4983844;28;20031;-81
2022/01/24 02:58:32;;;;;;;31.42;22.00;;;2.20;99.90;;;;;;5001475;28;20018;-82
2022/01/24 03:00:59;;;;;;;31.13;21.58;;;2.30;99.90;;;;;;5000654;28;20103;-80
2022/01/24 03:03:24;;;;;;;33.72;21.42;;;2.40;99.90;;;;;;4983291;28;20041;-81
2022/01/24 03:05:51;;;;;;;34.67;22.85;;;2.40;99.90;;;;;;5000427;28;20026;-81
2022/01/24 03:08:20;;;;;;;31.13;21.02;;;2.40;99.90;;;;;;5000400;28;20026;-83
2022/01/24 03:10:47;;;;;;;32.50;21.27;;;2.40;99.90;;;;;;5000380;28;20117;-82
2022/01/24 03:15:55;;;;;;;30.42;21.00;;;2.60;99.90;;;;;;5000273;28;20422;-82
2022/01/24 03:18:22;;;;;;;34.17;21.50;;;2.60;99.90;;;;;;4983020;28;20022;-84
2022/01/24 03:20:48;;;;;;;37.30;22.73;;;2.70;99.90;;;;;;4988977;28;20113;-83
2022/01/24 03:23:16;;;;;;;35.60;21.80;;;2.60;99.90;;;;;;4982861;28;20474;-84
2022/01/24 03:25:43;;;;;;;28.33;19.98;;;2.70;99.90;;;;;;5000586;28;20069;-84
2022/01/24 03:28:10;;;;;;;31.35;19.88;;;2.60;99.90;;;;;;5000655;28;20043;-83
2022/01/24 03:30:39;;;;;;;32.05;20.77;;;2.50;99.90;;;;;;5000481;28;20435;-82
2022/01/24 03:33:06;;;;;;;26.42;18.75;;;2.40;99.90;;;;;;4999078;28;20113;-81
2022/01/24 03:35:33;;;;;;;34.05;21.73;;;2.30;99.90;;;;;;4985342;28;20034;-82
2022/01/24 03:38:04;;;;;;;28.40;19.80;;;2.30;99.90;;;;;;4982815;28;20387;-82
2022/01/24 03:40:35;;;;;;;34.70;20.98;;;2.20;99.90;;;;;;4999903;28;20493;-82
2022/01/24 03:43:01;;;;;;;31.80;20.50;;;2.20;99.90;;;;;;4981207;28;20158;-82
2022/01/24 03:45:48;;;;;;;29.45;20.33;;;2.10;99.90;;;;;;4982331;28;20042;-83
2022/01/24 03:48:37;;;;;;;32.35;22.08;;;2.20;99.90;;;;;;4982105;28;20046;-82
2022/01/24 03:51:06;;;;;;;31.25;21.60;;;2.20;99.90;;;;;;4982356;28;20502;-82
2022/01/24 03:53:34;;;;;;;33.22;21.65;;;2.20;99.90;;;;;;4999842;28;20073;-82
2022/01/24 03:56:00;;;;;;;32.58;21.67;;;2.10;99.90;;;;;;4999499;28;20065;-82
2022/01/24 03:58:29;;;;;;;30.25;19.35;;;2.10;99.90;;;;;;4982132;28;20458;-82
2022/01/24 04:00:57;;;;;;;27.27;18.95;;;2.10;99.90;;;;;;4981998;28;20045;-83
2022/01/24 04:03:23;;;;;;;32.53;22.20;;;2.00;99.90;;;;;;4982548;28;20018;-82
2022/01/24 04:05:49;;;;;;;27.75;20.17;;;1.90;99.90;;;;;;4981797;28;20137;-82
2022/01/24 04:08:15;;;;;;;30.98;20.73;;;1.90;99.90;;;;;;4981642;28;20109;-82
2022/01/24 04:10:44;;;;;;;31.17;19.98;;;1.90;99.90;;;;;;4981913;28;20485;-82
2022/01/24 04:18:48;;;;;;;28.67;19.58;;;1.90;99.90;;;;;;4999331;28;20533;-82
2022/01/24 04:24:04;;;;;;;38.10;23.15;;;1.90;99.90;;;;;;4998680;28;20371;-82
2022/01/24 04:26:32;;;;;;;29.35;20.52;;;1.90;99.90;;;;;;4981617;28;20034;-81
2022/01/24 04:28:58;;;;;;;38.28;21.08;;;1.90;99.90;;;;;;4976701;28;20070;-82
2022/01/24 04:31:25;;;;;;;30.35;21.17;;;1.90;99.90;;;;;;4979657;28;20387;-82
2022/01/24 04:33:51;;;;;;;33.03;22.30;;;1.90;99.90;;;;;;4997170;28;20078;-82
2022/01/24 04:36:18;;;;;;;37.17;20.98;;;1.90;99.90;;;;;;4987485;28;20031;-82
2022/01/24 04:38:45;;;;;;;30.00;21.10;;;1.90;99.90;;;;;;4961701;28;20106;-81
2022/01/24 04:41:19;;;;;;;33.28;22.27;;;1.80;99.90;;;;;;4962164;28;20050;-81
2022/01/24 04:52:16;;;;;;;33.97;21.98;;;1.80;99.90;;;;;;4979254;28;20403;-80
2022/01/24 04:54:42;;;;;;;33.22;21.83;;;1.80;99.90;;;;;;4978801;28;20026;-83
2022/01/24 04:57:20;;;;;;;40.13;21.58;;;1.90;99.90;;;;;;4978877;28;20027;-82
2022/01/24 04:59:48;;;;;;;36.28;22.60;;;1.90;99.90;;;;;;4961449;28;20022;-83
2022/01/24 05:02:18;;;;;;;33.03;23.45;;;2.00;99.90;;;;;;4961393;28;20027;-82
2022/01/24 05:04:44;;;;;;;30.00;22.17;;;1.90;99.90;;;;;;4978825;28;20026;-82
2022/01/24 05:07:11;;;;;;;31.23;21.30;;;1.90;99.90;;;;;;4979977;28;20117;-83
2022/01/24 05:09:42;;;;;;;41.35;23.08;;;1.90;99.90;;;;;;4961201;28;20053;-83
2022/01/24 05:25:39;;;;;;;31.13;22.20;;;1.80;99.90;;;;;;4978652;28;20110;-82
2022/01/24 05:28:07;;;;;;;31.92;21.55;;;1.80;99.90;;;;;;4968466;28;20054;-83
2022/01/24 05:30:33;;;;;;;35.95;22.48;;;1.70;99.90;;;;;;4978289;28;20050;-82
2022/01/24 05:32:59;;;;;;;33.03;22.85;;;1.80;99.90;;;;;;4977579;28;20034;-80
2022/01/24 05:35:25;;;;;;;32.10;23.40;;;1.70;99.90;;;;;;4976888;28;20030;-83
2022/01/24 05:37:51;;;;;;;38.42;21.83;;;1.80;99.90;;;;;;4979403;28;20062;-83
2022/01/24 05:40:17;;;;;;;33.13;22.42;;;1.70;99.90;;;;;;4978175;28;20042;-83
2022/01/24 05:42:43;;;;;;;37.55;23.20;;;1.70;99.90;;;;;;4979763;28;20050;-84
2022/01/24 05:45:09;;;;;;;35.00;23.25;;;1.80;99.90;;;;;;4977798;28;20042;-82
2022/01/24 05:47:35;;;;;;;38.30;23.80;;;1.80;99.90;;;;;;4978475;28;20023;-81
2022/01/24 05:50:05;;;;;;;38.25;22.90;;;1.90;99.90;;;;;;4976818;28;20030;-81
2022/01/24 05:52:31;;;;;;;37.38;22.02;;;2.00;99.90;;;;;;4977025;28;20031;-81
2022/01/24 05:54:59;;;;;;;34.95;22.73;;;2.00;99.90;;;;;;4977976;28;20026;-81
2022/01/24 05:57:25;;;;;;;53.78;32.08;;;2.10;99.90;;;;;;4978237;28;20050;-81
2022/01/24 05:59:51;;;;;;;134.50;65.90;;;2.10;99.90;;;;;;4982359;28;20494;-82
2022/01/24 06:02:17;;;;;;;191.90;96.38;;;2.10;99.90;;;;;;4984492;28;20123;-82
2022/01/24 06:04:45;;;;;;;469.25;228.30;;;2.10;99.90;;;;;;4978088;28;20061;-81
2022/01/24 06:07:11;;;;;;;130.00;60.55;;;2.00;99.90;;;;;;4980034;28;20031;-82
2022/01/24 06:09:37;;;;;;;63.35;36.17;;;2.00;99.90;;;;;;4980840;28;20406;-82
2022/01/24 06:12:03;;;;;;;201.52;111.70;;;2.00;99.90;;;;;;4980846;28;20030;-82
2022/01/24 06:14:32;;;;;;;249.07;123.20;;;2.00;99.90;;;;;;4980800;28;20027;-81
2022/01/24 06:17:07;;;;;;;;;;;;;;;;;;;;;
2022/01/24 06:19:34;;;;;;;953.13;514.60;;;2.00;99.90;;;;;;5000067;28;20093;-82
2022/01/24 06:22:00;;;;;;;425.17;206.40;;;2.00;99.90;;;;;;4991830;28;20109;-82
2022/01/24 06:24:26;;;;;;;103.15;60.20;;;2.00;99.90;;;;;;4998537;28;20061;-82
2022/01/24 06:26:54;;;;;;;59.35;40.30;;;1.90;99.90;;;;;;5001536;28;20014;-82
2022/01/24 06:29:20;;;;;;;40.97;27.13;;;1.90;99.90;;;;;;5002394;28;20022;-82
2022/01/24 06:31:48;;;;;;;37.22;24.13;;;1.90;99.90;;;;;;5020785;28;20033;-81
2022/01/24 06:34:16;;;;;;;60.60;48.70;;;1.80;99.90;;;;;;5014161;28;20040;-82
2022/01/24 06:36:42;;;;;;;45.47;29.08;;;1.80;99.90;;;;;;5017290;28;20068;-81
2022/01/24 06:39:11;;;;;;;106.45;62.92;;;1.70;99.90;;;;;;5011714;28;20101;-82
2022/01/24 06:41:38;;;;;;;376.05;224.20;;;1.70;99.90;;;;;;4983478;28;20498;-82
2022/01/24 06:44:04;;;;;;;101.15;60.42;;;1.70;99.90;;;;;;5001016;28;20034;-82
2022/01/24 06:46:45;;;;;;;;;;;;;;;;;;;;;
2022/01/24 06:49:42;;;;;;;384.88;157.73;;;1.60;99.90;;;;;;5001434;28;20030;-83
2022/01/24 06:52:21;;;;;;;;;;;;;;;;;;;;;
2022/01/24 06:55:08;;;;;;;78.57;45.67;;;1.70;99.90;;;;;;5001519;28;20101;-82
2022/01/24 06:57:44;;;;;;;43.45;26.98;;;1.70;99.90;;;;;;5001242;28;20057;-85
2022/01/24 07:00:15;;;;;;;46.33;33.65;;;1.80;99.90;;;;;;4984058;28;20058;-85
2022/01/24 07:02:44;;;;;;;51.03;35.05;;;1.80;99.90;;;;;;5017124;28;20426;-85
2022/01/24 07:05:24;;;;;;;54.50;42.40;;;1.90;99.90;;;;;;4983491;28;20045;-85
2022/01/24 07:07:57;;;;;;;37.53;27.13;;;1.90;99.90;;;;;;5011917;28;20029;-84
2022/01/24 07:10:30;;;;;;;34.88;25.13;;;1.80;99.90;;;;;;5000088;28;20057;-85
2022/01/24 07:13:06;;;;;;;38.88;25.40;;;1.90;99.90;;;;;;4994010;28;20081;-85
2022/01/24 07:15:54;;;;;;;;;;;;;;;;;;;;;
2022/01/24 07:21:11;;;;;;;37.17;23.77;;;1.70;99.90;;;;;;5013132;28;20033;-85
2022/01/24 07:24:20;;;;;;;40.13;24.70;;;1.70;99.90;;;;;;5032065;28;20018;-85
2022/01/24 07:26:48;;;;;;;46.42;24.60;;;1.70;99.90;;;;;;5014597;28;20088;-84
2022/01/24 07:29:26;;;;;;;37.80;24.92;;;1.70;99.90;;;;;;5002026;28;20466;-85
2022/01/24 07:31:57;;;;;;;39.58;26.30;;;1.70;99.90;;;;;;5000579;28;20045;-85
2022/01/24 07:34:43;;;;;;;41.88;27.38;;;1.60;99.90;;;;;;5001557;28;20029;-85
2022/01/24 07:37:14;;;;;;;36.50;25.13;;;1.70;99.90;;;;;;4985239;28;20034;-85
2022/01/24 07:39:46;;;;;;;44.38;27.92;;;1.70;99.90;;;;;;4997198;28;20083;-85
2022/01/24 07:45:26;;;;;;;47.35;26.58;;;1.80;99.90;;;;;;5001570;28;20057;-85
2022/01/24 07:47:55;;;;;;;39.17;27.15;;;1.90;99.90;;;;;;5000139;28;20018;-85
2022/01/24 07:50:27;;;;;;;41.42;28.50;;;2.00;99.90;;;;;;5000268;28;20458;-85
2022/01/24 07:53:06;;;;;;;;;;;;;;;;;;;;;
2022/01/24 07:55:35;;;;;;;42.28;26.27;;;2.00;99.90;;;;;;4999666;28;20105;-84
2022/01/24 07:58:14;;;;;;;41.95;27.15;;;2.10;99.90;;;;;;4982231;28;20028;-85
2022/01/24 08:00:43;;;;;;;42.60;24.50;;;2.20;99.90;;;;;;4999754;28;20029;-85
2022/01/24 08:03:16;;;;;;;40.25;25.27;;;2.20;99.90;;;;;;4999421;28;20487;-85
2022/01/24 08:06:18;;;;;;;;;;;;;;;;;;;;;
2022/01/24 08:08:50;;;;;;;43.30;24.25;;;2.40;99.90;;;;;;4990901;28;20117;-85
2022/01/24 08:11:23;;;;;;;34.10;23.67;;;2.50;99.90;;;;;;4982587;28;20113;-85
2022/01/24 08:14:04;;;;;;;37.08;25.27;;;2.60;99.90;;;;;;4981669;28;20034;-84
2022/01/24 08:16:35;;;;;;;32.33;20.75;;;2.80;99.90;;;;;;4970605;28;20029;-84
2022/01/24 08:19:03;;;;;;;32.63;22.70;;;2.90;99.90;;;;;;5000499;28;20027;-85
2022/01/24 08:22:04;;;;;;;;;;;;;;;;;;;;;
2022/01/24 08:24:43;;;;;;;;;;;3.10;99.90;;;;;;5001002;28;20110;-85
2022/01/24 08:27:55;;;;;;;33.05;21.83;;;3.10;99.90;;;;;;4980200;28;19916;-86
2022/01/24 08:30:24;;;;;;;32.70;22.13;;;3.30;99.90;;;;;;4972600;28;20046;-85
2022/01/24 08:33:20;;;;;;;;;;;;;;;;;;;;;
2022/01/24 08:35:57;;;;;;;29.98;21.52;;;3.40;99.90;;;;;;5002598;28;20101;-85
2022/01/24 08:38:33;;;;;;;25.88;19.15;;;3.50;99.90;;;;;;4999547;28;20085;-84
2022/01/24 08:41:16;;;;;;;34.05;19.13;;;3.60;99.90;;;;;;4999518;28;20014;-85
2022/01/24 08:44:18;;;;;;;44.97;24.10;;;3.70;99.90;;;;;;4999240;28;20530;-85
2022/01/24 08:47:16;;;;;;;;;;;;;;;;;;;;;
2022/01/24 08:53:02;;;;;;;225.75;82.32;;;4.10;99.90;;;;;;4998623;28;20030;-85
2022/01/24 08:55:44;;;;;;;51.85;24.42;;;4.20;99.90;;;;;;4973534;28;20038;-85
2022/01/24 08:58:14;;;;;;;107.78;45.22;;;4.40;99.90;;;;;;4987687;28;20027;-82
2022/01/24 09:01:22;;;;;;;70.30;29.95;;;4.50;99.90;;;;;;4982500;28;20030;-83
2022/01/24 09:04:09;;;;;;;75.97;35.42;;;4.60;99.90;;;;;;4995390;28;20037;-87
2022/01/24 09:06:57;;;;;;;47.80;24.33;;;4.70;99.90;;;;;;4997046;28;20129;-80
2022/01/24 09:09:23;;;;;;;53.22;27.13;;;4.90;99.90;;;;;;4998735;28;20634;-81
2022/01/24 09:11:49;;;;;;;35.38;19.48;;;5.00;99.90;;;;;;4981214;28;20102;-81
2022/01/24 09:14:47;;;;;;;146.98;55.72;;;5.00;99.90;;;;;;4981279;28;20830;-80
2022/01/24 09:17:37;;;;;;;46.00;22.35;;;5.10;99.90;;;;;;4980092;28;20076;-80
2022/01/24 09:20:06;;;;;;;43.35;23.15;;;5.20;99.90;;;;;;4995929;28;20121;-81
2022/01/24 09:22:36;;;;;;;180.80;75.60;;;5.30;99.90;;;;;;5000694;28;20025;-80
2022/01/24 09:25:15;;;;;;;29.60;19.67;;;5.40;99.90;;;;;;4980776;28;20037;-80
2022/01/24 09:27:51;;;;;;;51.10;29.95;;;5.40;99.90;;;;;;4967928;28;20023;-80
2022/01/24 09:30:25;;;;;;;36.53;21.98;;;5.50;99.90;;;;;;4965429;28;20050;-80
2022/01/24 09:32:51;;;;;;;74.30;36.25;;;5.70;99.90;;;;;;4961215;28;20467;-80
2022/01/24 09:35:27;;;;;;;53.67;26.70;;;5.80;99.90;;;;;;4964503;28;20033;-80
2022/01/24 09:37:53;;;;;;;48.67;26.58;;;5.90;99.90;;;;;;4978823;28;20023;-80
2022/01/24 09:40:20;;;;;;;47.58;26.00;;;5.90;99.90;;;;;;4983149;28;20497;-79
2022/01/24 09:42:47;;;;;;;43.20;23.77;;;6.00;99.90;;;;;;4977289;28;20015;-80
2022/01/24 09:45:14;;;;;;;72.47;34.75;;;6.00;99.90;;;;;;4961466;28;20034;-81
2022/01/24 09:47:40;;;;;;;75.53;36.78;;;6.20;99.90;;;;;;4978210;28;20030;-78
2022/01/24 09:50:09;;;;;;;165.40;76.45;;;6.20;99.90;;;;;;4979038;28;20027;-79
2022/01/24 09:52:38;;;;;;;31.55;17.00;;;6.20;99.90;;;;;;4962192;28;20387;-79
2022/01/24 09:55:05;;;;;;;151.85;75.40;;;6.30;99.90;;;;;;4980466;28;20053;-80
2022/01/24 09:57:31;;;;;;;67.57;34.83;;;6.40;99.90;;;;;;4980678;28;20105;-79
2022/01/24 09:59:57;;;;;;;35.67;18.48;;;6.40;99.90;;;;;;4977662;28;20031;-79
2022/01/24 10:02:27;;;;;;;46.75;27.48;;;6.50;99.90;;;;;;4979856;28;20452;-79
2022/01/24 10:05:14;;;;;;;60.85;37.10;;;6.60;99.90;;;;;;4980023;28;20034;-78
2022/01/24 10:07:41;;;;;;;34.63;21.10;;;6.70;99.90;;;;;;4978542;28;20037;-78
2022/01/24 10:10:08;;;;;;;54.90;29.83;;;6.80;99.90;;;;;;4979808;28;20368;-79
2022/01/24 10:18:04;;;;;;;39.13;23.40;;;7.00;99.90;;;;;;4979153;28;20097;-80
2022/01/24 10:20:33;;;;;;;24.27;17.23;;;7.10;99.90;;;;;;4967051;28;20026;-79
2022/01/24 10:23:16;;;;;;;37.53;26.10;;;7.10;99.90;;;;;;4978021;28;20195;-77
2022/01/24 10:26:04;;;;;;;24.27;17.55;;;7.20;99.90;;;;;;4977950;28;20065;-78
2022/01/24 10:28:41;;;;;;;31.52;19.27;;;7.20;99.90;;;;;;4981771;28;20102;-78
2022/01/24 10:31:12;;;;;;;25.63;17.35;;;7.20;99.90;;;;;;4997688;28;20031;-79
2022/01/24 10:34:05;;;;;;;28.60;17.60;;;7.30;99.90;;;;;;4997393;28;20501;-78
2022/01/24 10:36:48;;;;;;;26.02;17.85;;;7.40;99.90;;;;;;4999956;28;20034;-78
2022/01/24 10:39:15;;;;;;;25.00;15.43;;;7.50;99.90;;;;;;4997671;28;20022;-79
2022/01/24 10:41:58;;;;;;;25.85;15.93;;;7.50;99.90;;;;;;4997259;28;20054;-79
2022/01/24 10:44:35;;;;;;;28.48;19.35;;;7.50;99.90;;;;;;4997485;28;20046;-79
2022/01/24 10:47:11;;;;;;;25.73;15.75;;;7.60;99.90;;;;;;4997205;28;20446;-79
2022/01/24 10:49:37;;;;;;;35.50;20.27;;;7.60;99.90;;;;;;4997079;28;20029;-79
2022/01/24 10:52:21;;;;;;;21.02;14.88;;;7.70;99.90;;;;;;4997238;28;20409;-78
2022/01/24 10:54:50;;;;;;;20.02;13.30;;;7.80;99.90;;;;;;5000541;28;20030;-78
2022/01/24 10:57:25;;;;;;;21.73;14.27;;;7.80;99.90;;;;;;4983062;28;20058;-78
2022/01/24 11:00:00;;;;;;;19.23;12.70;;;7.90;99.90;;;;;;4983011;28;20033;-78
2022/01/24 11:02:40;;;;;;;19.30;13.00;;;7.90;99.90;;;;;;5000626;28;20022;-79
2022/01/24 11:05:13;;;;;;;20.23;13.95;;;8.00;99.90;;;;;;4991030;28;20507;-79
2022/01/24 11:07:58;;;;;;;20.27;14.65;;;8.00;99.90;;;;;;4981892;28;20038;-79
2022/01/24 11:10:27;;;;;;;23.55;15.80;;;8.10;99.90;;;;;;4973749;28;20145;-79
2022/01/24 11:12:54;;;;;;;30.42;17.02;;;8.10;99.90;;;;;;4982573;28;20404;-79
2022/01/24 11:15:24;;;;;;;20.52;14.77;;;8.10;99.90;;;;;;4981342;28;20049;-79
2022/01/24 11:17:50;;;;;;;43.33;24.37;;;8.20;99.90;;;;;;4990395;28;20034;-80
2022/01/24 11:20:18;;;;;;;47.75;27.33;;;8.20;99.90;;;;;;5005225;28;20287;-79
2022/01/24 11:22:49;;;;;;;35.08;23.40;;;8.20;99.90;;;;;;4982211;28;20093;-80
2022/01/24 11:25:15;;;;;;;;;;;8.30;99.90;;;;;;4987640;28;20027;-79
2022/01/24 11:27:47;;;;;;;20.08;13.30;;;8.30;99.90;;;;;;4999928;28;20000;-79
2022/01/24 11:30:22;;;;;;;19.50;13.20;;;8.30;99.90;;;;;;4999758;28;20039;-79
2022/01/24 11:32:58;;;;;;;20.83;14.25;;;8.30;99.90;;;;;;4999834;28;20046;-79
2022/01/24 11:35:44;;;;;;;36.47;26.38;;;8.40;99.90;;;;;;5003175;28;20073;-79
2022/01/24 11:38:42;;;;;;;17.80;13.55;;;8.40;99.90;;;;;;4999877;28;20034;-79
2022/01/24 11:41:26;;;;;;;32.85;19.45;;;8.50;99.90;;;;;;4982891;28;20030;-78
2022/01/24 11:43:56;;;;;;;22.15;15.18;;;8.50;99.90;;;;;;4982019;28;20116;-79
2022/01/24 11:46:47;;;;;;;21.73;12.73;;;8.50;99.90;;;;;;4981694;28;20045;-78
2022/01/24 11:49:15;;;;;;;;;;;8.50;99.90;;;;;;5000290;28;20038;-78
2022/01/24 11:51:43;;;;;;;22.02;14.35;;;8.60;99.90;;;;;;5010173;28;19929;-78
2022/01/24 11:54:43;;;;;;;18.23;13.50;;;8.60;99.90;;;;;;5015932;28;20034;-77
2022/01/24 11:57:19;;;;;;;18.63;13.43;;;8.70;99.90;;;;;;4998340;28;20454;-78
2022/01/24 11:59:46;;;;;;;20.80;13.55;;;8.70;99.90;;;;;;5012168;28;20026;-77
2022/01/24 12:02:21;;;;;;;17.40;12.25;;;8.70;99.90;;;;;;5004771;28;20100;-78
2022/01/24 12:04:58;;;;;;;22.70;13.75;;;8.70;99.90;;;;;;4999303;28;20033;-78
2022/01/24 12:07:30;;;;;;;21.63;13.32;;;8.70;99.90;;;;;;4983922;28;20058;-78
2022/01/24 12:10:38;;;;;;;18.83;13.75;;;8.80;99.90;;;;;;5011360;28;20026;-78
2022/01/24 12:13:36;;;;;;;24.50;13.55;;;8.80;99.90;;;;;;4981436;28;20039;-79
2022/01/24 12:16:11;;;;;;;22.25;13.38;;;8.80;99.90;;;;;;4999005;28;20033;-79
2022/01/24 12:18:37;;;;;;;19.15;12.27;;;8.90;99.90;;;;;;4981760;28;20106;-78
2022/01/24 12:21:16;;;;;;;18.75;14.55;;;9.00;99.90;;;;;;5003354;28;20050;-78
2022/01/24 12:23:47;;;;;;;18.90;12.07;;;8.90;99.90;;;;;;4998532;28;20018;-78
2022/01/24 12:26:13;;;;;;;20.02;13.20;;;9.00;99.90;;;;;;4998199;28;20454;-78
2022/01/24 12:28:41;;;;;;;17.48;13.43;;;9.00;99.90;;;;;;4998426;28;20046;-78
2022/01/24 12:31:10;;;;;;;18.13;13.02;;;9.00;99.90;;;;;;4998825;28;20041;-78
2022/01/24 12:33:53;;;;;;;18.23;12.52;;;9.00;99.90;;;;;;4998544;28;20441;-78
2022/01/24 12:36:39;;;;;;;17.92;12.07;;;9.10;99.90;;;;;;4990274;28;20037;-78
2022/01/24 12:39:15;;;;;;;14.40;11.32;;;9.10;99.90;;;;;;5007271;28;20493;-78
2022/01/24 12:41:47;;;;;;;17.40;11.98;;;9.20;99.90;;;;;;5013239;28;20023;-78
2022/01/24 12:47:03;;;;;;;13.13;9.73;;;9.20;99.90;;;;;;4959893;28;20030;-79
2022/01/24 12:49:30;;;;;;;14.80;10.98;;;9.20;99.90;;;;;;4998371;28;20030;-78
2022/01/24 12:52:00;;;;;;;19.05;11.80;;;9.20;99.90;;;;;;4992142;28;20014;-78
2022/01/24 12:54:34;;;;;;;15.27;10.18;;;9.20;99.90;;;;;;4972800;28;20033;-78
2022/01/24 12:57:05;;;;;;;13.82;10.02;;;9.20;99.90;;;;;;4983336;28;20041;-78
2022/01/24 12:59:36;;;;;;;17.63;10.65;;;9.20;99.90;;;;;;5001916;28;20105;-78
2022/01/24 13:02:06;;;;;;;13.60;9.98;;;9.20;99.90;;;;;;4998278;28;20014;-78
2022/01/24 13:04:39;;;;;;;14.77;11.07;;;9.20;99.90;;;;;;4997433;28;20050;-78
2022/01/24 13:07:09;;;;;;;13.60;10.55;;;9.30;99.90;;;;;;5014524;28;20045;-78
2022/01/24 13:09:36;;;;;;;16.13;10.15;;;9.30;99.90;;;;;;5011904;28;20467;-79
2022/01/24 13:12:05;;;;;;;13.90;10.27;;;9.30;99.90;;;;;;5015432;28;20026;-81
2022/01/24 13:14:51;;;;;;;14.52;10.70;;;9.30;99.90;;;;;;5007531;28;20078;-81
2022/01/24 13:20:42;;;;;;;16.98;10.45;;;9.40;99.90;;;;;;5010428;28;20036;-83
2022/01/24 13:23:11;;;;;;;15.50;10.80;;;9.40;99.90;;;;;;4987023;28;20018;-83
2022/01/24 13:25:38;;;;;;;18.20;10.27;;;9.40;99.90;;;;;;4998203;28;20524;-82
2022/01/24 13:28:13;;;;;;;15.90;10.23;;;9.40;99.90;;;;;;4999297;28;20023;-82
2022/01/24 13:30:42;;;;;;;12.60;9.55;;;9.40;99.90;;;;;;4998664;28;20037;-83
2022/01/24 13:33:15;;;;;;;43.38;25.20;;;9.40;99.90;;;;;;4981228;28;20023;-82
2022/01/24 13:35:51;;;;;;;122.22;56.08;;;9.40;99.90;;;;;;4983338;28;20077;-83
2022/01/24 13:38:22;;;;;;;136.15;55.53;;;9.40;99.90;;;;;;4998241;28;20058;-83
2022/01/24 13:40:59;;;;;;;77.97;33.67;;;9.40;99.90;;;;;;4998336;28;20030;-83
2022/01/24 13:43:56;;;;;;;20.08;12.40;;;9.40;99.90;;;;;;4998630;28;20037;-82
2022/01/24 13:46:24;;;;;;;222.90;97.07;;;9.50;99.90;;;;;;4994232;28;20117;-83
2022/01/24 13:49:06;;;;;;;41.40;22.83;;;9.50;99.90;;;;;;4998152;28;20035;-83
2022/01/24 13:51:52;;;;;;;16.77;11.43;;;9.40;99.90;;;;;;4980510;28;20027;-83
2022/01/24 13:54:27;;;;;;;33.30;18.52;;;9.50;99.90;;;;;;4980687;28;20030;-83
2022/01/24 13:57:05;;;;;;;27.02;15.05;;;9.40;99.90;;;;;;4981171;28;20034;-84
2022/01/24 13:59:35;;;;;;;53.70;27.73;;;9.40;99.90;;;;;;4981115;28;20033;-84
2022/01/24 14:02:16;;;;;;;104.00;51.00;;;9.50;99.90;;;;;;4999511;28;20094;-83
2022/01/24 14:04:53;;;;;;;175.43;76.22;;;9.50;99.90;;;;;;4998619;28;20014;-84
2022/01/24 14:07:42;;;;;;;191.95;80.57;;;9.50;99.90;;;;;;4998245;28;20030;-83
2022/01/24 14:10:15;;;;;;;22.55;13.73;;;9.50;99.90;;;;;;4997889;28;20022;-83
2022/01/24 14:12:44;;;;;;;18.40;11.55;;;9.50;99.90;;;;;;4980090;28;20085;-83
2022/01/24 14:15:48;;;;;;;27.25;15.65;;;9.50;99.90;;;;;;4998082;28;20027;-85
2022/01/24 14:18:28;;;;;;;209.25;84.10;;;9.40;99.90;;;;;;4980685;28;20426;-82
2022/01/24 14:21:12;;;;;;;133.57;56.58;;;9.50;99.90;;;;;;4985195;28;20030;-83
2022/01/24 14:23:39;;;;;;;135.55;56.35;;;9.40;99.90;;;;;;4979843;28;20037;-83
2022/01/24 14:26:22;;;;;;;157.38;68.88;;;9.40;99.90;;;;;;4980020;28;20034;-84
2022/01/24 14:29:10;;;;;;;51.50;24.10;;;9.40;99.90;;;;;;4999894;28;20088;-84
2022/01/24 14:31:36;;;;;;;42.67;20.35;;;9.40;99.90;;;;;;4983817;28;20035;-84
2022/01/24 14:34:06;;;;;;;35.45;17.33;;;9.40;99.90;;;;;;4983529;28;20118;-82
2022/01/24 14:36:32;;;;;;;63.65;30.25;;;9.40;99.90;;;;;;5003930;28;20038;-83
2022/01/24 14:39:03;;;;;;;109.38;50.17;;;9.40;99.90;;;;;;5001097;28;20026;-81
2022/01/24 14:41:34;;;;;;;;;;;9.30;99.90;;;;;;5001280;28;20026;-83
2022/01/24 14:46:53;;;;;;;383.85;148.05;;;9.20;99.90;;;;;;5000104;28;20076;-83
2022/01/24 14:49:25;;;;;;;378.98;151.45;;;9.20;99.90;;;;;;4983568;28;20034;-83
2022/01/24 14:51:53;;;;;;;95.32;40.28;;;9.10;99.90;;;;;;5000724;28;20022;-83
2022/01/24 14:54:24;;;;;;;315.92;122.95;;;9.00;99.90;;;;;;5000565;28;20018;-83
2022/01/24 14:56:53;;;;;;;601.25;303.95;;;8.90;99.90;;;;;;5000814;28;20026;-82
2022/01/24 14:59:20;;;;;;;219.90;92.95;;;8.90;99.90;;;;;;5000124;28;20061;-83
2022/01/24 15:01:47;;;;;;;102.78;42.88;;;8.80;99.90;;;;;;5000675;28;20030;-82
2022/01/24 15:04:13;;;;;;;153.93;65.07;;;8.80;99.90;;;;;;5000247;28;20499;-83
2022/01/24 15:06:44;;;;;;;113.82;51.78;;;8.70;99.90;;;;;;5000464;28;20076;-83
2022/01/24 15:09:23;;;;;;;;;;;8.70;99.90;;;;;;5000328;28;20034;-83
2022/01/24 15:11:50;;;;;;;262.67;114.20;;;8.70;99.90;;;;;;4982599;28;19909;-82
2022/01/24 15:14:34;;;;;;;131.90;58.65;;;8.60;99.90;;;;;;5000146;28;20144;-81